Time,TemperatureF,DewpointF,PressureIn,WindDirection,WindDirectionDegrees,WindSpeedMPH,WindSpeedGustMPH,Humidity,HourlyPrecipIn,Conditions,Clouds,dailyrainin,SoftwareType,DateUTC
2013-06-09 00:11:00,76.0,74.0,29.91,WSW,253,3.0,4.0,93,0.00,,,1.28,weatherlink.com 1.10,2013-06-09 04:11:00,
2013-06-09 00:26:00,76.2,74.0,29.91,SW,215,2.0,5.0,93,0.00,,,1.28,weatherlink.com 1.10,2013-06-09 04:26:00,
2013-06-09 00:41:00,76.1,74.0,29.91,SW,224,2.0,6.0,92,0.00,,,1.28,weatherlink.com 1.10,2013-06-09 04:41:00,
2013-06-09 00:57:00,76.2,74.0,29.92,SSW,193,2.0,4.0,93,0.00,,,1.28,weatherlink.com 1.10,2013-06-09 04:57:00,
2013-06-09 01:12:00,76.2,74.0,29.92,SSW,207,1.0,3.0,93,0.00,,,0.00,weatherlink.com 1.10,2013-06-09 05:12:00,
2013-06-09 01:27:00,75.8,74.0,29.91,SSW,201,1.0,2.0,93,0.00,,,0.00,weatherlink.com 1.10,2013-06-09 05:27:00,
2013-06-09 01:42:00,75.6,74.0,29.91,SW,216,2.0,3.0,93,0.00,,,0.00,weatherlink.com 1.10,2013-06-09 05:42:00,
2013-06-09 01:58:00,75.4,74.0,29.92,SW,218,1.0,3.0,94,0.00,,,0.00,weatherlink.com 1.10,2013-06-09 05:58:00,
2013-06-09 02:13:00,75.2,73.0,29.92,SW,221,2.0,3.0,94,0.00,,,0.00,weatherlink.com 1.10,2013-06-09 06:13:00,
2013-06-09 02:28:00,75.3,74.0,29.91,SW,231,1.0,4.0,94,0.00,,,0.00,weatherlink.com 1.10,2013-06-09 06:28:00,
2013-06-09 02:43:00,75.1,73.0,29.91,SSW,205,2.0,2.0,94,0.00,,,0.00,weatherlink.com 1.10,2013-06-09 06:43:00,
2013-06-09 02:59:00,75.4,74.0,29.91,SSW,195,1.0,3.0,94,0.00,,,0.00,weatherlink.com 1.10,2013-06-09 06:59:00,
2013-06-09 03:14:00,75.2,73.0,29.91,SW,224,1.0,3.0,94,0.00,,,0.00,weatherlink.com 1.10,2013-06-09 07:14:00,
2013-06-09 03:29:00,75.1,73.0,29.91,SSE,164,1.0,3.0,94,0.00,,,0.00,weatherlink.com 1.10,2013-06-09 07:29:00,
2013-06-09 03:44:00,74.8,73.0,29.91,SSW,200,2.0,3.0,95,0.00,,,0.00,weatherlink.com 1.10,2013-06-09 07:44:00,
2013-06-09 03:59:00,74.8,73.0,29.91,SSW,193,2.0,3.0,95,0.00,,,0.00,weatherlink.com 1.10,2013-06-09 07:59:00,
2013-06-09 04:16:00,74.7,73.0,29.92,SW,214,1.0,3.0,95,0.00,,,0.00,weatherlink.com 1.10,2013-06-09 08:16:00,
2013-06-09 04:31:00,74.6,73.0,29.92,South,172,1.0,2.0,95,0.00,,,0.00,weatherlink.com 1.10,2013-06-09 08:31:00,
2013-06-09 04:46:00,74.6,73.0,29.92,SSW,205,1.0,2.0,95,0.00,,,0.00,weatherlink.com 1.10,2013-06-09 08:46:00,
2013-06-09 05:02:00,74.6,73.0,29.93,SSW,207,1.0,2.0,95,0.00,,,0.00,weatherlink.com 1.10,2013-06-09 09:02:00,
2013-06-09 05:16:00,74.6,73.0,29.93,SW,229,1.0,2.0,96,0.00,,,0.00,weatherlink.com 1.10,2013-06-09 09:16:00,
2013-06-09 05:31:00,74.6,73.0,29.93,SW,222,1.0,1.0,96,0.00,,,0.00,weatherlink.com 1.10,2013-06-09 09:31:00,
2013-06-09 05:46:00,74.4,73.0,29.94,SSW,197,2.0,3.0,96,0.00,,,0.00,weatherlink.com 1.10,2013-06-09 09:46:00,
2013-06-09 06:02:00,74.4,73.0,29.94,SSW,208,2.0,3.0,96,0.00,,,0.00,weatherlink.com 1.10,2013-06-09 10:02:00,
2013-06-09 06:17:00,74.4,73.0,29.95,SSW,203,1.0,3.0,96,0.00,,,0.00,weatherlink.com 1.10,2013-06-09 10:17:00,
2013-06-09 06:32:00,74.4,73.0,29.95,SSW,207,2.0,4.0,96,0.00,,,0.00,weatherlink.com 1.10,2013-06-09 10:32:00,
2013-06-09 06:47:00,74.8,74.0,29.95,SSE,156,3.0,3.0,96,0.00,,,0.00,weatherlink.com 1.10,2013-06-09 10:47:00,
2013-06-09 07:03:00,75.7,75.0,29.96,SW,236,2.0,6.0,96,0.00,,,0.00,weatherlink.com 1.10,2013-06-09 11:03:00,
2013-06-09 07:18:00,76.3,75.0,29.96,WSW,239,5.0,7.0,94,0.00,,,0.00,weatherlink.com 1.10,2013-06-09 11:18:00,
2013-06-09 07:33:00,77.1,75.0,29.96,SW,236,5.0,7.0,94,0.00,,,0.00,weatherlink.com 1.10,2013-06-09 11:33:00,
2013-06-09 07:48:00,78.2,76.0,29.96,WSW,245,4.0,6.0,92,0.00,,,0.00,weatherlink.com 1.10,2013-06-09 11:48:00,
2013-06-09 08:04:00,78.3,75.0,29.96,SW,232,1.0,7.0,90,0.00,,,0.00,weatherlink.com 1.10,2013-06-09 12:04:00,
2013-06-09 08:19:00,78.6,75.0,29.96,WSW,239,3.0,6.0,88,0.00,,,0.00,weatherlink.com 1.10,2013-06-09 12:19:00,
2013-06-09 08:34:00,78.8,75.0,29.97,West,267,3.0,7.0,88,0.00,,,0.00,weatherlink.com 1.10,2013-06-09 12:34:00,
2013-06-09 08:49:00,79.5,75.0,29.97,WNW,294,4.0,6.0,87,0.00,,,0.00,weatherlink.com 1.10,2013-06-09 12:49:00,
2013-06-09 09:05:00,79.3,75.0,29.97,SW,236,4.0,6.0,86,0.00,,,0.00,weatherlink.com 1.10,2013-06-09 13:05:00,
2013-06-09 09:36:00,80.8,75.0,29.97,West,267,3.0,6.0,82,0.00,,,0.00,weatherlink.com 1.10,2013-06-09 13:36:00,
2013-06-09 09:51:00,82.2,76.0,29.97,WNW,287,6.0,7.0,80,0.00,,,0.00,weatherlink.com 1.10,2013-06-09 13:51:00,
2013-06-09 10:36:00,84.3,76.0,29.97,West,276,2.0,3.0,76,0.00,,,0.00,weatherlink.com 1.10,2013-06-09 14:36:00,
2013-06-09 10:51:00,84.0,75.0,29.97,SSW,208,2.0,6.0,75,0.00,,,0.00,weatherlink.com 1.10,2013-06-09 14:51:00,
2013-06-09 11:06:00,84.9,75.0,29.97,NW,309,2.0,5.0,72,0.00,,,0.00,weatherlink.com 1.10,2013-06-09 15:06:00,
2013-06-09 11:22:00,86.1,75.0,29.97,ESE,122,1.0,4.0,70,0.00,,,0.00,weatherlink.com 1.10,2013-06-09 15:22:00,
2013-06-09 11:37:00,85.3,75.0,29.97,WNW,293,1.0,5.0,71,0.00,,,0.00,weatherlink.com 1.10,2013-06-09 15:37:00,
2013-06-09 11:52:00,86.7,75.0,29.97,South,187,3.0,5.0,69,0.00,,,0.00,weatherlink.com 1.10,2013-06-09 15:52:00,
2013-06-09 12:07:00,87.1,75.0,29.97,WNW,298,0.0,6.0,68,0.00,,,0.00,weatherlink.com 1.10,2013-06-09 16:07:00,
2013-06-09 12:22:00,86.7,75.0,29.96,SW,219,2.0,5.0,68,0.00,,,0.00,weatherlink.com 1.10,2013-06-09 16:22:00,
2013-06-09 12:38:00,86.4,75.0,29.96,WNW,291,4.0,8.0,68,0.00,,,0.00,weatherlink.com 1.10,2013-06-09 16:38:00,
2013-06-09 12:53:00,86.4,74.0,29.95,WSW,248,4.0,6.0,67,0.00,,,0.00,weatherlink.com 1.10,2013-06-09 16:53:00,
2013-06-09 13:08:00,87.0,74.0,29.95,SW,215,0.0,0.0,66,0.00,,,0.00,weatherlink.com 1.10,2013-06-09 17:08:00,
2013-06-09 13:24:00,86.8,77.0,29.94,SSW,212,0.0,0.0,72,0.00,,,0.00,weatherlink.com 1.10,2013-06-09 17:24:00,
2013-06-09 13:39:00,85.6,76.0,29.94,SW,236,0.0,0.0,74,0.00,,,0.00,weatherlink.com 1.10,2013-06-09 17:39:00,
2013-06-09 13:54:00,85.8,76.0,29.94,SW,236,0.0,0.0,73,0.00,,,0.00,weatherlink.com 1.10,2013-06-09 17:54:00,
2013-06-09 14:09:00,86.1,77.0,29.93,SSW,195,0.0,0.0,74,0.00,,,0.00,weatherlink.com 1.10,2013-06-09 18:09:00,
2013-06-09 14:24:00,85.9,76.0,29.93,SSW,207,0.0,0.0,72,0.00,,,0.00,weatherlink.com 1.10,2013-06-09 18:24:00,
2013-06-09 14:41:00,85.6,76.0,29.93,SSW,204,0.0,0.0,72,0.00,,,0.00,weatherlink.com 1.10,2013-06-09 18:41:00,
2013-06-09 14:56:00,85.6,75.0,29.93,SSW,197,0.0,0.0,71,0.00,,,0.00,weatherlink.com 1.10,2013-06-09 18:56:00,
2013-06-09 15:11:00,85.5,76.0,29.93,SSW,205,0.0,0.0,72,0.00,,,0.00,weatherlink.com 1.10,2013-06-09 19:11:00,
2013-06-09 15:26:00,84.7,73.0,29.93,South,191,0.0,0.0,69,0.00,,,0.00,weatherlink.com 1.10,2013-06-09 19:26:00,
2013-06-09 15:41:00,84.4,74.0,29.93,South,183,0.0,0.0,70,0.00,,,0.00,weatherlink.com 1.10,2013-06-09 19:41:00,
2013-06-09 15:56:00,84.1,73.0,29.93,SSW,197,0.0,0.0,70,0.00,,,0.00,weatherlink.com 1.10,2013-06-09 19:56:00,
2013-06-09 16:11:00,83.5,74.0,29.92,SSW,204,0.0,0.0,72,0.00,,,0.00,weatherlink.com 1.10,2013-06-09 20:11:00,
2013-06-09 16:26:00,83.3,75.0,29.92,SSW,212,0.0,0.0,75,0.00,,,0.00,weatherlink.com 1.10,2013-06-09 20:26:00,
2013-06-09 16:41:00,82.8,75.0,29.92,SW,230,0.0,0.0,76,0.00,,,0.00,weatherlink.com 1.10,2013-06-09 20:41:00,
2013-06-09 16:57:00,82.5,75.0,29.92,South,176,0.0,0.0,77,0.00,,,0.00,weatherlink.com 1.10,2013-06-09 20:57:00,
2013-06-09 17:12:00,82.2,75.0,29.92,SSW,193,0.0,0.0,79,0.00,,,0.00,weatherlink.com 1.10,2013-06-09 21:12:00,
2013-06-09 17:27:00,81.6,76.0,29.92,SSW,210,0.0,0.0,82,0.00,,,0.00,weatherlink.com 1.10,2013-06-09 21:27:00,
2013-06-09 17:42:00,80.7,76.0,29.92,SSW,200,11.0,17.0,84,0.00,,,0.00,weatherlink.com 1.10,2013-06-09 21:42:00,
2013-06-09 17:58:00,80.3,76.0,29.92,SW,216,14.0,15.0,85,0.00,,,0.00,weatherlink.com 1.10,2013-06-09 21:58:00,
2013-06-09 18:13:00,78.6,74.0,29.93,South,173,9.0,20.0,86,0.00,,,0.00,weatherlink.com 1.10,2013-06-09 22:13:00,
2013-06-09 18:28:00,78.2,74.0,29.93,SSW,212,9.0,16.0,87,0.00,,,0.00,weatherlink.com 1.10,2013-06-09 22:28:00,
2013-06-09 18:43:00,78.0,74.0,29.94,South,176,5.0,11.0,87,0.00,,,0.00,weatherlink.com 1.10,2013-06-09 22:43:00,
2013-06-09 18:58:00,77.8,74.0,29.95,SSW,205,4.0,12.0,87,0.00,,,0.00,weatherlink.com 1.10,2013-06-09 22:58:00,
2013-06-09 19:14:00,77.7,74.0,29.95,SSW,198,6.0,11.0,87,0.00,,,0.00,weatherlink.com 1.10,2013-06-09 23:14:00,
2013-06-09 19:29:00,77.3,73.0,29.95,SSW,203,7.0,11.0,87,0.00,,,0.00,weatherlink.com 1.10,2013-06-09 23:29:00,
2013-06-09 19:44:00,77.3,73.0,29.95,WSW,257,4.0,10.0,87,0.00,,,0.00,weatherlink.com 1.10,2013-06-09 23:44:00,
2013-06-09 19:59:00,77.2,73.0,29.95,South,179,8.0,11.0,86,0.00,,,0.00,weatherlink.com 1.10,2013-06-09 23:59:00,
2013-06-09 20:14:00,76.9,73.0,29.95,SSW,200,9.0,13.0,87,0.00,,,0.00,weatherlink.com 1.10,2013-06-10 00:14:00,
2013-06-09 20:31:00,76.8,73.0,29.95,SSW,210,11.0,12.0,88,0.00,,,0.00,weatherlink.com 1.10,2013-06-10 00:31:00,
2013-06-09 20:46:00,76.5,73.0,29.95,SSW,197,7.0,15.0,88,0.00,,,0.00,weatherlink.com 1.10,2013-06-10 00:46:00,
2013-06-09 21:02:00,76.1,72.0,29.96,WSW,245,7.0,16.0,87,0.00,,,0.00,weatherlink.com 1.10,2013-06-10 01:02:00,
2013-06-09 21:16:00,76.0,72.0,29.96,SSW,207,8.0,17.0,86,0.00,,,0.00,weatherlink.com 1.10,2013-06-10 01:16:00,
2013-06-09 21:31:00,75.8,70.0,29.96,SSW,212,9.0,16.0,83,0.00,,,0.00,weatherlink.com 1.10,2013-06-10 01:31:00,
2013-06-09 21:46:00,75.4,70.0,29.96,SW,219,5.0,16.0,84,0.00,,,0.00,weatherlink.com 1.10,2013-06-10 01:46:00,
2013-06-09 22:02:00,74.9,70.0,29.97,SSW,207,4.0,10.0,84,0.00,,,0.00,weatherlink.com 1.10,2013-06-10 02:02:00,
2013-06-09 22:16:00,74.6,70.0,29.97,SSW,205,4.0,12.0,84,0.00,,,0.00,weatherlink.com 1.10,2013-06-10 02:16:00,
2013-06-09 22:32:00,74.7,70.0,29.97,WSW,249,3.0,8.0,84,0.00,,,0.00,weatherlink.com 1.10,2013-06-10 02:32:00,
2013-06-09 22:47:00,74.7,70.0,29.97,South,190,7.0,9.0,85,0.00,,,0.00,weatherlink.com 1.10,2013-06-10 02:47:00,
2013-06-09 23:02:00,74.7,70.0,29.97,South,181,4.0,10.0,86,0.00,,,0.00,weatherlink.com 1.10,2013-06-10 03:02:00,
2013-06-09 23:17:00,74.6,71.0,29.97,South,191,4.0,9.0,87,0.00,,,0.00,weatherlink.com 1.10,2013-06-10 03:17:00,
2013-06-09 23:33:00,74.6,71.0,29.97,SSW,208,1.0,11.0,88,0.00,,,0.00,weatherlink.com 1.10,2013-06-10 03:33:00,
2013-06-09 23:48:00,74.5,71.0,29.96,SSW,207,7.0,8.0,88,0.00,,,0.00,weatherlink.com 1.10,2013-06-10 03:48:00,